createdAt,value
2019-02-19T00:01:50.684Z,9.95
2019-02-19T00:03:55.302Z,10.75
2019-02-19T00:05:59.522Z,7.87
2019-02-19T00:08:03.416Z,8.23
2019-02-19T00:10:09.415Z,7.22
2019-02-19T00:12:13.237Z,8.30
2019-02-19T00:14:17.723Z,8.60
2019-02-19T00:16:21.923Z,6.45
2019-02-19T00:18:26.022Z,7.85
2019-02-19T00:20:29.824Z,8.05
2019-02-19T00:22:34.049Z,7.85
2019-02-19T00:24:38.154Z,7.78
2019-02-19T00:26:42.271Z,9.03
2019-02-19T00:28:46.140Z,6.75
2019-02-19T00:30:50.279Z,6.90
2019-02-19T00:32:54.387Z,6.75
2019-02-19T00:34:58.509Z,9.60
2019-02-19T00:37:02.605Z,7.85
2019-02-19T00:39:09.997Z,8.70
2019-02-19T00:41:13.852Z,8.03
2019-02-19T00:43:18.011Z,5.60
2019-02-19T00:45:22.132Z,11.68
2019-02-19T00:47:26.240Z,6.35
2019-02-19T00:49:30.347Z,10.08
2019-02-19T00:51:34.158Z,6.65
2019-02-19T00:53:38.271Z,9.08
2019-02-19T00:55:43.908Z,7.65
2019-02-19T00:57:48.024Z,7.03
2019-02-19T00:59:52.121Z,8.98
2019-02-19T01:01:56.227Z,6.45
2019-02-19T01:04:00.031Z,8.08
2019-02-19T01:06:04.249Z,9.78
2019-02-19T01:08:08.079Z,10.05
2019-02-19T01:10:13.802Z,8.90
2019-02-19T01:12:18.009Z,7.55
2019-02-19T01:14:21.832Z,5.67
2019-02-19T01:16:26.349Z,10.13
2019-02-19T01:18:30.179Z,9.38
2019-02-19T01:20:33.979Z,6.25
2019-02-19T01:22:38.367Z,6.65
2019-02-19T01:24:42.195Z,10.03
2019-02-19T01:26:46.364Z,8.68
2019-02-19T01:28:50.167Z,8.98
2019-02-19T01:30:54.288Z,6.28
2019-02-19T01:32:59.017Z,7.42
2019-02-19T01:35:03.235Z,7.25
2019-02-19T01:37:07.437Z,10.25
2019-02-19T01:39:11.249Z,7.20
2019-02-19T01:41:15.347Z,8.30
2019-02-19T01:43:19.173Z,6.75
2019-02-19T01:45:22.973Z,5.95
2019-02-19T01:47:27.355Z,10.08
2019-02-19T01:49:31.189Z,9.60
2019-02-19T01:51:35.386Z,6.12
2019-02-19T01:53:39.592Z,8.23
2019-02-19T01:55:43.707Z,8.83
2019-02-19T01:57:49.166Z,9.85
2019-02-19T01:59:53.370Z,7.65
2019-02-19T02:01:57.484Z,11.40
2019-02-19T02:04:01.598Z,9.05
2019-02-19T02:06:05.430Z,8.80
2019-02-19T02:08:09.595Z,9.00
2019-02-19T02:10:13.724Z,11.63
2019-02-19T02:12:17.546Z,8.23
2019-02-19T02:14:21.734Z,9.38
2019-02-19T02:16:26.354Z,6.97
2019-02-19T02:18:30.460Z,9.65
2019-02-19T02:20:34.572Z,7.62
2019-02-19T02:22:38.679Z,9.65
2019-02-19T02:24:43.848Z,9.43
2019-02-19T02:26:49.788Z,12.55
2019-02-19T02:28:55.257Z,7.72
2019-02-19T02:30:59.436Z,7.00
2019-02-19T02:33:03.242Z,7.08
2019-02-19T02:35:07.440Z,10.75
2019-02-19T02:37:11.243Z,9.38
2019-02-19T02:39:15.072Z,6.83
2019-02-19T02:41:19.160Z,6.78
2019-02-19T02:43:23.268Z,8.80
2019-02-19T02:45:27.990Z,8.43
2019-02-19T02:47:32.086Z,7.85
2019-02-19T02:49:36.224Z,13.75
2019-02-19T02:51:40.044Z,8.88
2019-02-19T02:53:44.114Z,8.90
2019-02-19T02:55:47.926Z,8.68
2019-02-19T02:57:51.734Z,9.93
2019-02-19T02:59:55.956Z,9.38
2019-02-19T03:02:00.066Z,9.90
2019-02-19T03:04:05.528Z,7.35
2019-02-19T03:06:14.003Z,10.28
2019-02-19T03:08:18.120Z,6.33
2019-02-19T03:10:21.943Z,8.20
2019-02-19T03:12:26.143Z,7.90
2019-02-19T03:14:30.130Z,10.95
2019-02-19T03:16:37.323Z,6.60
2019-02-19T03:18:41.132Z,9.85
2019-02-19T03:20:45.244Z,10.40
2019-02-19T03:22:49.451Z,8.13
2019-02-19T03:24:53.557Z,8.83
2019-02-19T03:26:57.367Z,7.65
2019-02-19T03:29:04.094Z,8.50
2019-02-19T03:31:07.910Z,9.60
2019-02-19T03:33:12.049Z,7.25
2019-02-19T03:35:16.165Z,7.87
2019-02-19T03:37:20.278Z,11.22
2019-02-19T03:39:25.299Z,10.78
2019-02-19T03:41:30.662Z,9.23
2019-02-19T03:43:34.483Z,9.45
2019-02-19T03:45:38.656Z,6.87
2019-02-19T03:47:44.317Z,9.33
2019-02-19T03:49:48.406Z,7.75
2019-02-19T03:51:53.346Z,9.88
2019-02-19T03:53:57.694Z,7.67
2019-02-19T03:56:01.382Z,9.93
2019-02-19T03:58:05.786Z,8.88
2019-02-19T04:00:10.010Z,9.45
2019-02-19T04:02:14.506Z,8.65
2019-02-19T04:04:18.622Z,10.18
2019-02-19T04:06:22.451Z,11.97
2019-02-19T04:08:26.631Z,11.90
2019-02-19T04:10:30.745Z,9.13
2019-02-19T04:12:35.533Z,10.13
2019-02-19T04:14:39.367Z,8.60
2019-02-19T04:16:43.483Z,7.78
2019-02-19T04:18:47.600Z,9.70
2019-02-19T04:20:51.704Z,9.43
2019-02-19T04:22:55.683Z,10.98
2019-02-19T04:24:59.818Z,8.38
2019-02-19T04:27:03.723Z,11.00
2019-02-19T04:29:07.607Z,10.93
2019-02-19T04:31:11.483Z,9.33
2019-02-19T04:33:15.652Z,9.90
2019-02-19T04:35:19.495Z,9.98
2019-02-19T04:37:23.679Z,9.85
2019-02-19T04:39:27.883Z,10.95
2019-02-19T04:41:31.984Z,11.50
2019-02-19T04:43:36.099Z,8.98
2019-02-19T04:45:40.315Z,10.80
2019-02-19T04:47:45.638Z,12.88
2019-02-19T04:49:49.770Z,11.35
2019-02-19T04:51:53.597Z,11.55
2019-02-19T04:53:57.465Z,14.23
2019-02-19T04:56:01.766Z,9.23
2019-02-19T04:58:05.598Z,10.20
2019-02-19T05:00:14.041Z,13.70
2019-02-19T05:02:18.199Z,11.65
2019-02-19T05:04:22.025Z,11.28
2019-02-19T05:06:26.213Z,8.93
2019-02-19T05:08:30.038Z,9.45
2019-02-19T05:10:34.013Z,10.10
2019-02-19T05:12:38.155Z,11.15
2019-02-19T05:14:42.347Z,10.50
2019-02-19T05:16:46.569Z,13.18
2019-02-19T05:18:52.027Z,10.65
2019-02-19T05:20:56.138Z,12.37
2019-02-19T05:22:59.991Z,10.53
2019-02-19T05:25:07.183Z,9.27
2019-02-19T05:27:11.423Z,13.93
2019-02-19T05:29:15.632Z,9.58
2019-02-19T05:31:19.757Z,13.83
2019-02-19T05:33:23.839Z,10.45
2019-02-19T05:35:27.765Z,14.60
2019-02-19T05:37:33.203Z,11.73
2019-02-19T05:39:37.310Z,12.35
2019-02-19T05:41:41.144Z,11.28
2019-02-19T05:43:45.022Z,13.10
2019-02-19T05:45:49.039Z,10.75
2019-02-19T05:47:53.235Z,9.20
2019-02-19T05:49:57.343Z,12.18
2019-02-19T05:52:01.560Z,10.95
2019-02-19T05:54:05.663Z,11.48
2019-02-19T05:56:10.997Z,13.43
2019-02-19T05:58:15.225Z,10.38
2019-02-19T06:00:19.336Z,12.45
2019-02-19T06:02:23.439Z,12.58
2019-02-19T06:04:27.263Z,13.05
2019-02-19T06:06:31.063Z,9.98
2019-02-19T06:08:35.255Z,9.40
2019-02-19T06:10:41.490Z,10.93
2019-02-19T06:12:45.619Z,9.65
2019-02-19T06:14:49.837Z,10.72
2019-02-19T06:16:58.491Z,11.45
2019-02-19T06:18:59.617Z,11.22
2019-02-19T06:21:03.829Z,12.47
2019-02-19T06:23:07.639Z,8.55
2019-02-19T06:25:11.826Z,12.75
2019-02-19T06:27:15.678Z,12.13
2019-02-19T06:29:19.497Z,11.00
2019-02-19T06:31:23.330Z,9.58
2019-02-19T06:33:27.501Z,11.73
2019-02-19T06:35:31.578Z,13.65
2019-02-19T06:37:35.784Z,13.68
2019-02-19T06:39:41.841Z,15.00
2019-02-19T06:41:45.686Z,10.80
2019-02-19T06:43:49.846Z,11.65
2019-02-19T06:45:53.658Z,10.98
2019-02-19T06:47:57.754Z,11.20
2019-02-19T06:50:01.967Z,12.93
2019-02-19T06:52:06.081Z,13.03
2019-02-19T06:54:09.935Z,12.55
2019-02-19T06:56:14.089Z,12.07
2019-02-19T06:58:18.201Z,10.65
2019-02-19T07:00:22.923Z,11.25
2019-02-19T07:02:40.069Z,11.60
2019-02-19T07:04:45.532Z,14.38
2019-02-19T07:06:49.377Z,14.47
2019-02-19T07:08:53.497Z,13.65
2019-02-19T07:10:57.715Z,9.55
2019-02-19T07:13:01.516Z,9.75
2019-02-19T07:15:07.494Z,11.43
2019-02-19T07:17:15.683Z,11.65
2019-02-19T07:19:19.065Z,11.88
2019-02-19T07:21:23.180Z,12.40
2019-02-19T07:23:27.295Z,13.18
2019-02-19T07:25:31.120Z,11.55
2019-02-19T07:27:34.967Z,10.82
2019-02-19T07:29:39.109Z,11.15
2019-02-19T07:31:42.916Z,13.03
2019-02-19T07:33:47.016Z,13.68
2019-02-19T07:35:54.723Z,11.95
2019-02-19T07:37:58.742Z,12.10
2019-02-19T07:40:02.583Z,11.55
2019-02-19T07:42:06.729Z,11.43
2019-02-19T07:44:10.791Z,9.35
2019-02-19T07:46:14.969Z,10.32
2019-02-19T07:48:19.076Z,15.43
2019-02-19T07:50:23.175Z,10.50
2019-02-19T07:52:27.006Z,11.63
2019-02-19T07:54:31.193Z,11.55
2019-02-19T07:56:35.323Z,10.35
2019-02-19T07:58:41.466Z,11.63
2019-02-19T08:00:45.275Z,13.40
2019-02-19T08:02:49.083Z,12.28
2019-02-19T08:04:53.284Z,13.15
2019-02-19T08:06:57.403Z,14.90
2019-02-19T08:09:01.496Z,12.18
2019-02-19T08:11:05.338Z,12.03
2019-02-19T08:13:09.152Z,18.27
2019-02-19T08:15:13.319Z,12.95
2019-02-19T08:17:17.523Z,13.15
2019-02-19T08:19:21.655Z,10.58
2019-02-19T08:21:25.481Z,15.53
2019-02-19T08:23:30.015Z,13.75
2019-02-19T08:25:34.179Z,14.55
2019-02-19T08:27:37.991Z,11.33
2019-02-19T08:29:42.189Z,14.70
2019-02-19T08:31:46.295Z,12.37
2019-02-19T08:33:50.424Z,12.93
2019-02-19T08:35:58.084Z,13.20
2019-02-19T08:38:03.683Z,11.93
2019-02-19T08:40:10.023Z,17.95
2019-02-19T08:42:13.879Z,14.00
2019-02-19T08:44:18.044Z,12.85
2019-02-19T08:46:22.247Z,16.97
2019-02-19T08:48:26.109Z,14.55
2019-02-19T08:50:29.940Z,14.45
2019-02-19T08:52:35.598Z,16.37
2019-02-19T08:54:39.807Z,13.88
2019-02-19T08:56:43.654Z,11.63
2019-02-19T08:58:47.516Z,14.47
2019-02-19T09:00:51.632Z,14.83
2019-02-19T09:02:55.745Z,17.35
2019-02-19T09:04:59.947Z,18.27
2019-02-19T09:07:03.787Z,14.20
2019-02-19T09:09:07.959Z,12.30
2019-02-19T09:11:11.844Z,15.30
2019-02-19T09:13:15.992Z,12.40
2019-02-19T09:15:20.182Z,16.48
2019-02-19T09:17:24.314Z,14.40
2019-02-19T09:19:28.520Z,14.63
2019-02-19T09:21:32.362Z,14.00
2019-02-19T09:23:36.193Z,13.75
2019-02-19T09:25:40.330Z,16.42
2019-02-19T09:27:44.547Z,14.35
2019-02-19T09:29:48.648Z,14.80
2019-02-19T09:31:54.513Z,17.48
2019-02-19T09:33:58.746Z,15.50
2019-02-19T09:36:02.573Z,16.62
2019-02-19T09:38:06.668Z,18.65
2019-02-19T09:40:11.186Z,20.65
2019-02-19T09:42:15.370Z,15.65
2019-02-19T09:44:19.582Z,14.20
2019-02-19T09:46:23.433Z,19.98
2019-02-19T09:48:27.616Z,14.55
2019-02-19T09:50:31.442Z,17.80
2019-02-19T09:52:35.611Z,15.50
2019-02-19T09:54:39.827Z,15.80
2019-02-19T09:56:45.983Z,16.52
2019-02-19T09:58:50.084Z,14.73
2019-02-19T10:00:54.214Z,15.18
2019-02-19T10:02:58.031Z,12.80
2019-02-19T10:05:02.223Z,19.32
2019-02-19T10:07:06.089Z,14.18
2019-02-19T10:09:10.227Z,15.88
2019-02-19T10:11:14.347Z,23.22
2019-02-19T10:13:18.551Z,23.98
2019-02-19T10:15:22.380Z,14.98
2019-02-19T10:17:26.204Z,18.45
2019-02-19T10:19:30.052Z,15.93
2019-02-19T10:21:34.176Z,17.27
2019-02-19T10:23:38.038Z,14.93
2019-02-19T10:25:44.680Z,16.93
2019-02-19T10:27:48.530Z,18.40
2019-02-19T10:29:52.860Z,16.00
2019-02-19T10:31:56.980Z,15.63
2019-02-19T10:34:04.277Z,16.23
2019-02-19T10:36:08.484Z,17.17
2019-02-19T10:38:12.321Z,14.75
2019-02-19T10:40:18.131Z,18.05
2019-02-19T10:42:22.352Z,15.28
2019-02-19T10:44:27.656Z,14.45
2019-02-19T10:46:31.799Z,19.45
2019-02-19T10:48:37.372Z,14.30
2019-02-19T10:50:42.066Z,19.75
2019-02-19T10:52:46.482Z,16.57
2019-02-19T10:54:51.206Z,14.43
2019-02-19T10:56:55.417Z,18.48
2019-02-19T10:58:59.271Z,15.90
2019-02-19T11:01:03.080Z,16.82
2019-02-19T11:03:07.241Z,19.87
2019-02-19T11:05:11.868Z,18.77
2019-02-19T11:07:15.963Z,19.67
2019-02-19T11:09:20.189Z,15.23
2019-02-19T11:11:24.283Z,16.67
2019-02-19T11:13:28.390Z,18.70
2019-02-19T11:15:32.608Z,15.38
2019-02-19T11:17:36.440Z,14.83
2019-02-19T11:19:40.260Z,16.52
2019-02-19T11:21:44.422Z,16.85
2019-02-19T11:23:48.543Z,16.20
2019-02-19T11:25:52.752Z,19.50
2019-02-19T11:27:56.865Z,21.50
2019-02-19T11:30:00.382Z,18.10
2019-02-19T11:32:04.313Z,15.00
2019-02-19T11:34:08.484Z,17.82
2019-02-19T11:36:12.901Z,14.60
2019-02-19T11:38:16.729Z,14.20
2019-02-19T11:40:20.597Z,14.93
2019-02-19T11:42:24.718Z,16.15
2019-02-19T11:44:28.929Z,13.25
2019-02-19T11:46:32.726Z,15.40
2019-02-19T11:48:37.158Z,11.00
2019-02-19T11:50:41.172Z,12.17
2019-02-19T11:52:45.105Z,11.47
2019-02-19T11:54:48.967Z,12.10
2019-02-19T11:56:52.875Z,10.57
2019-02-19T11:58:56.776Z,11.90
2019-02-19T12:01:00.883Z,12.73
2019-02-19T12:03:04.701Z,11.03
2019-02-19T12:05:08.623Z,10.40
2019-02-19T12:07:12.505Z,11.40
2019-02-19T12:09:16.302Z,9.83
2019-02-19T12:11:20.211Z,10.87
2019-02-19T12:13:24.019Z,9.50
2019-02-19T12:15:34.870Z,9.50
2019-02-19T12:17:33.567Z,10.93
2019-02-19T12:19:37.359Z,10.73
2019-02-19T12:21:41.182Z,10.27
2019-02-19T12:23:45.328Z,8.23
2019-02-19T12:25:49.180Z,10.20
2019-02-19T12:27:54.235Z,8.13
2019-02-19T12:29:58.127Z,9.00
2019-02-19T12:32:01.925Z,7.50
2019-02-19T12:34:05.471Z,6.60
2019-02-19T12:36:08.991Z,6.23
2019-02-19T12:38:12.822Z,8.87
2019-02-19T12:40:16.730Z,7.80
2019-02-19T12:42:20.255Z,5.97
2019-02-19T12:44:23.787Z,6.83
2019-02-19T12:46:27.333Z,10.33
2019-02-19T12:48:31.219Z,10.20
2019-02-19T12:50:34.748Z,6.83
2019-02-19T12:52:40.196Z,9.33
2019-02-19T12:54:43.739Z,6.40
2019-02-19T12:56:47.563Z,6.87
2019-02-19T12:58:51.465Z,6.40
2019-02-19T13:00:55.271Z,6.70
2019-02-19T13:02:59.171Z,5.93
2019-02-19T13:05:02.982Z,8.63
2019-02-19T13:07:06.531Z,6.90
2019-02-19T13:09:10.377Z,8.80
2019-02-19T13:11:14.181Z,8.10
2019-02-19T13:13:17.701Z,6.97
2019-02-19T13:15:22.789Z,8.67
2019-02-19T13:17:26.711Z,9.10
2019-02-19T13:19:32.073Z,7.73
2019-02-19T13:21:36.071Z,7.10
2019-02-19T13:23:39.861Z,6.07
2019-02-19T13:25:43.458Z,8.33
2019-02-19T13:27:47.367Z,6.67
2019-02-19T13:29:51.181Z,7.97
2019-02-19T13:31:55.146Z,6.83
2019-02-19T13:33:58.989Z,8.70
2019-02-19T13:36:02.987Z,7.60
2019-02-19T13:38:06.938Z,6.73
2019-02-19T13:40:12.797Z,5.30
2019-02-19T13:42:16.331Z,3.93
2019-02-19T13:44:20.151Z,3.30
2019-02-19T13:46:23.684Z,4.87
2019-02-19T13:48:27.665Z,3.67
2019-02-19T13:50:32.680Z,6.43
2019-02-19T13:52:38.133Z,2.87
2019-02-19T13:54:42.658Z,4.33
2019-02-19T13:56:46.169Z,4.80
2019-02-19T13:58:50.046Z,6.43
2019-02-19T14:00:53.949Z,10.00
2019-02-19T14:02:57.753Z,6.00
2019-02-19T14:05:01.551Z,5.53
2019-02-19T14:07:05.247Z,9.70
2019-02-19T14:09:08.761Z,4.73
2019-02-19T14:11:12.563Z,8.27
2019-02-19T14:13:16.099Z,5.87
2019-02-19T14:15:26.863Z,5.70
2019-02-19T14:17:30.741Z,4.67
2019-02-19T14:19:41.736Z,4.03
2019-02-19T14:21:59.427Z,8.20
2019-02-19T14:24:20.881Z,5.30
2019-02-19T14:26:32.049Z,3.33
2019-02-19T14:28:40.419Z,4.43
2019-02-19T14:31:00.879Z,6.33
2019-02-19T14:33:13.623Z,6.57
2019-02-19T14:35:28.094Z,5.23
2019-02-19T14:37:33.294Z,5.30
2019-02-19T14:39:38.751Z,3.67
2019-02-19T14:41:55.768Z,3.20
2019-02-19T14:44:13.112Z,4.80
2019-02-19T14:46:24.576Z,4.73
2019-02-19T14:48:42.027Z,3.90
2019-02-19T14:51:03.416Z,3.53
2019-02-19T14:53:08.861Z,3.83
2019-02-19T14:55:32.736Z,3.83
2019-02-19T14:57:50.097Z,3.47
2019-02-19T14:59:58.377Z,3.53
2019-02-19T15:02:20.087Z,3.90
2019-02-19T15:04:41.228Z,3.50
2019-02-19T15:06:46.405Z,4.10
2019-02-19T15:09:08.054Z,2.93
2019-02-19T15:11:16.008Z,4.70
2019-02-19T15:13:27.027Z,5.60
2019-02-19T15:15:32.673Z,4.10
2019-02-19T15:17:53.153Z,5.43
2019-02-19T15:19:58.617Z,3.90
2019-02-19T15:22:20.448Z,4.97
2019-02-19T15:24:42.053Z,6.57
2019-02-19T15:26:47.598Z,5.43
2019-02-19T15:29:05.123Z,5.20
2019-02-19T15:31:28.895Z,3.83
2019-02-19T15:33:34.054Z,4.70
2019-02-19T15:35:47.707Z,4.07
2019-02-19T15:38:02.219Z,6.67
2019-02-19T15:40:17.801Z,6.93
2019-02-19T15:42:23.336Z,5.47
2019-02-19T15:44:40.485Z,6.83
2019-02-19T15:46:48.957Z,4.05
2019-02-19T15:49:11.313Z,5.33
2019-02-19T15:51:19.512Z,4.72
2019-02-19T15:53:25.242Z,2.98
2019-02-19T15:55:36.844Z,7.58
2019-02-19T15:58:04.594Z,5.28
2019-02-19T16:00:10.442Z,6.20
2019-02-19T16:02:34.219Z,5.35
2019-02-19T16:04:39.841Z,6.22
2019-02-19T16:06:45.514Z,5.12
2019-02-19T16:09:09.449Z,3.85
2019-02-19T16:11:21.077Z,5.30
2019-02-19T16:13:29.607Z,6.78
2019-02-19T16:15:35.081Z,5.42
2019-02-19T16:17:40.923Z,5.87
2019-02-19T16:19:46.740Z,5.42
2019-02-19T16:21:58.460Z,6.90
2019-02-19T16:24:04.297Z,5.60
2019-02-19T16:26:28.361Z,6.58
2019-02-19T16:28:36.969Z,5.67
2019-02-19T16:30:51.842Z,6.65
2019-02-19T16:33:00.560Z,5.65
2019-02-19T16:35:07.260Z,3.60
2019-02-19T16:37:21.992Z,5.78
2019-02-19T16:39:33.474Z,6.08
2019-02-19T16:41:39.219Z,5.42
2019-02-19T16:43:44.971Z,4.45
2019-02-19T16:45:50.816Z,9.70
2019-02-19T16:48:02.430Z,5.28
2019-02-19T16:50:11.010Z,6.83
2019-02-19T16:52:16.447Z,6.37
2019-02-19T16:54:21.900Z,6.55
2019-02-19T16:56:36.458Z,4.45
2019-02-19T16:58:48.181Z,4.58
2019-02-19T17:00:56.354Z,6.42
2019-02-19T17:03:04.442Z,4.22
2019-02-19T17:05:13.008Z,5.80
2019-02-19T17:07:20.860Z,6.05
2019-02-19T17:09:43.095Z,4.15
2019-02-19T17:11:51.614Z,6.47
2019-02-19T17:13:58.600Z,6.25
2019-02-19T17:16:22.772Z,6.25
2019-02-19T17:18:37.145Z,7.80
2019-02-19T17:20:42.868Z,6.75
2019-02-19T17:22:51.439Z,5.97
2019-02-19T17:25:11.928Z,6.75
2019-02-19T17:27:17.726Z,9.28
2019-02-19T17:29:23.282Z,7.47
2019-02-19T17:31:40.898Z,9.68
2019-02-19T17:33:46.464Z,9.88
2019-02-19T17:35:54.998Z,7.22
2019-02-19T17:38:00.803Z,7.87
2019-02-19T17:40:11.576Z,8.50
2019-02-19T17:42:19.500Z,8.65
2019-02-19T17:44:34.389Z,7.95
2019-02-19T17:46:54.734Z,8.45
2019-02-19T17:49:00.183Z,6.90
2019-02-19T17:51:20.546Z,6.87
2019-02-19T17:53:38.402Z,8.15
2019-02-19T17:55:49.456Z,8.48
2019-02-19T17:58:13.311Z,5.55
2019-02-19T18:00:31.485Z,8.05
2019-02-19T18:02:43.143Z,6.75
2019-02-19T18:05:14.357Z,8.75
2019-02-19T18:07:20.172Z,10.58
2019-02-19T18:09:33.836Z,8.65
2019-02-19T18:11:39.662Z,5.87
2019-02-19T18:13:56.783Z,8.23
2019-02-19T18:16:03.133Z,5.90
2019-02-19T18:18:11.682Z,7.20
2019-02-19T18:20:16.260Z,8.23
2019-02-19T18:22:20.075Z,7.60
2019-02-19T18:24:24.306Z,9.80
2019-02-19T18:26:28.804Z,8.08
2019-02-19T18:28:32.612Z,7.40
2019-02-19T18:30:36.821Z,10.15
2019-02-19T18:32:41.064Z,9.08
2019-02-19T18:34:44.874Z,10.63
2019-02-19T18:36:48.836Z,12.85
2019-02-19T18:38:57.211Z,8.75
2019-02-19T18:41:01.377Z,10.10
2019-02-19T18:43:05.573Z,8.45
2019-02-19T18:45:10.202Z,8.78
2019-02-19T18:47:14.396Z,8.98
2019-02-19T18:49:18.622Z,8.73
2019-02-19T18:51:23.176Z,9.60
2019-02-19T18:53:27.262Z,10.23
2019-02-19T18:55:31.132Z,7.72
2019-02-19T18:57:34.946Z,7.08
2019-02-19T18:59:39.080Z,7.97
2019-02-19T19:01:43.268Z,8.95
2019-02-19T19:03:48.930Z,9.13
2019-02-19T19:05:54.535Z,9.00
2019-02-19T19:07:59.298Z,8.85
2019-02-19T19:10:03.820Z,7.53
2019-02-19T19:12:07.671Z,8.25
2019-02-19T19:14:11.840Z,7.28
2019-02-19T19:16:15.665Z,10.28
2019-02-19T19:18:19.866Z,9.45
2019-02-19T19:20:23.673Z,8.73
2019-02-19T19:22:27.506Z,8.50
2019-02-19T19:24:33.088Z,7.42
2019-02-19T19:26:36.879Z,8.38
2019-02-19T19:28:41.596Z,10.72
2019-02-19T19:30:45.746Z,9.60
2019-02-19T19:32:49.854Z,7.67
2019-02-19T19:34:53.963Z,8.20
2019-02-19T19:36:59.552Z,8.30
2019-02-19T19:39:05.100Z,11.75
2019-02-19T19:41:08.911Z,8.23
2019-02-19T19:43:12.846Z,8.70
2019-02-19T19:45:16.959Z,9.05
2019-02-19T19:47:20.809Z,10.20
2019-02-19T19:49:26.526Z,9.28
2019-02-19T19:51:30.679Z,9.10
2019-02-19T19:53:36.152Z,11.15
2019-02-19T19:55:39.975Z,7.85
2019-02-19T19:57:43.865Z,8.18
2019-02-19T19:59:47.669Z,8.48
2019-02-19T20:01:51.823Z,11.57
2019-02-19T20:03:55.644Z,8.90
2019-02-19T20:05:59.523Z,8.05
2019-02-19T20:08:03.392Z,12.65
2019-02-19T20:10:15.064Z,11.83
2019-02-19T20:12:18.904Z,28.05
2019-02-19T20:14:23.111Z,15.75
2019-02-19T20:16:28.878Z,9.18
2019-02-19T20:18:38.979Z,10.03
2019-02-19T20:20:38.925Z,21.52
2019-02-19T20:22:43.031Z,11.57
2019-02-19T20:24:47.150Z,14.85
2019-02-19T20:26:51.354Z,13.55
2019-02-19T20:28:55.903Z,11.95
2019-02-19T20:31:00.084Z,7.50
2019-02-19T20:33:04.299Z,10.48
2019-02-19T20:35:10.052Z,8.85
2019-02-19T20:37:14.980Z,12.75
2019-02-19T20:39:19.186Z,12.65
2019-02-19T20:41:23.404Z,14.60
2019-02-19T20:43:27.516Z,9.95
2019-02-19T20:45:31.733Z,10.82
2019-02-19T20:47:35.929Z,11.15
2019-02-19T20:49:39.758Z,12.40
2019-02-19T20:51:43.943Z,11.12
2019-02-19T20:53:47.759Z,12.23
2019-02-19T20:55:51.961Z,12.28
2019-02-19T20:57:56.171Z,13.15
2019-02-19T21:00:00.365Z,10.63
2019-02-19T21:02:05.206Z,12.82
2019-02-19T21:04:09.060Z,11.25
2019-02-19T21:06:12.897Z,11.10
2019-02-19T21:08:17.145Z,12.50
2019-02-19T21:10:21.662Z,11.12
2019-02-19T21:12:25.769Z,11.30
2019-02-19T21:14:30.698Z,11.33
2019-02-19T21:16:34.912Z,13.85
2019-02-19T21:18:39.027Z,11.43
2019-02-19T21:20:42.845Z,11.63
2019-02-19T21:22:47.027Z,11.18
2019-02-19T21:24:51.141Z,10.68
2019-02-19T21:26:54.986Z,10.40
2019-02-19T21:28:59.162Z,10.98
2019-02-19T21:31:03.846Z,9.93
2019-02-19T21:33:07.985Z,14.58
2019-02-19T21:35:12.093Z,10.58
2019-02-19T21:37:15.909Z,9.18
2019-02-19T21:39:20.008Z,10.88
2019-02-19T21:41:24.231Z,12.58
2019-02-19T21:43:28.059Z,12.00
2019-02-19T21:45:32.131Z,11.95
2019-02-19T21:47:36.363Z,17.15
2019-02-19T21:49:40.569Z,15.88
2019-02-19T21:51:44.682Z,11.97
2019-02-19T21:53:50.521Z,13.13
2019-02-19T21:55:54.643Z,12.05
2019-02-19T21:57:59.744Z,14.45
2019-02-19T22:00:05.997Z,14.33
2019-02-19T22:02:16.297Z,13.32
2019-02-19T22:04:15.727Z,13.25
2019-02-19T22:06:22.125Z,16.60
2019-02-19T22:08:25.433Z,14.50
2019-02-19T22:10:30.173Z,12.93
2019-02-19T22:12:33.987Z,11.53
2019-02-19T22:14:38.074Z,13.38
2019-02-19T22:16:42.296Z,14.63
2019-02-19T22:18:46.399Z,18.92
2019-02-19T22:21:07.177Z,18.00
2019-02-19T22:23:11.321Z,12.60
2019-02-19T22:25:15.521Z,15.32
2019-02-19T22:27:19.336Z,15.13
2019-02-19T22:29:23.172Z,14.95
2019-02-19T22:31:27.352Z,12.53
2019-02-19T22:33:31.560Z,14.58
2019-02-19T22:35:35.767Z,13.45
2019-02-19T22:37:41.529Z,14.40
2019-02-19T22:39:47.334Z,16.75
2019-02-19T22:41:51.680Z,14.53
2019-02-19T22:43:55.498Z,13.15
2019-02-19T22:45:59.732Z,10.30
2019-02-19T22:48:03.818Z,10.43
2019-02-19T22:50:09.581Z,9.88
2019-02-19T22:52:13.663Z,13.48
2019-02-19T22:54:19.126Z,14.90
2019-02-19T22:56:24.961Z,13.58
2019-02-19T22:58:29.170Z,17.35
2019-02-19T23:00:49.598Z,12.25
2019-02-19T23:02:53.782Z,12.50
2019-02-19T23:04:57.986Z,11.20
2019-02-19T23:07:02.094Z,9.28
2019-02-19T23:09:06.724Z,14.85
2019-02-19T23:11:10.556Z,16.67
2019-02-19T23:13:15.148Z,21.77
2019-02-19T23:15:19.371Z,11.68
2019-02-19T23:17:23.465Z,14.87
2019-02-19T23:19:27.580Z,12.98
2019-02-19T23:21:31.786Z,13.18
2019-02-19T23:23:35.603Z,13.48
2019-02-19T23:25:39.466Z,13.48
2019-02-19T23:27:43.606Z,11.05
2019-02-19T23:29:47.724Z,13.78
2019-02-19T23:31:51.567Z,11.03
2019-02-19T23:33:55.730Z,13.28
2019-02-19T23:36:16.544Z,15.40
2019-02-19T23:38:21.518Z,15.32
2019-02-19T23:40:25.330Z,12.13
2019-02-19T23:42:29.492Z,12.10
2019-02-19T23:44:33.602Z,15.50
2019-02-19T23:46:37.484Z,17.85
2019-02-19T23:48:41.624Z,16.57
2019-02-19T23:50:45.711Z,16.73
2019-02-19T23:52:49.841Z,13.70
2019-02-19T23:54:55.668Z,16.73
2019-02-19T23:57:01.838Z,14.43
2019-02-19T23:59:05.943Z,17.05
